Palomar Mountain, California
Current Conditions -  °F | °C
As of 3:53 PM on Tuesday 25 Nov 2014 (Local Time) from KRNM Reporting Station
Clear Clear  
Wind Chill: 72°   Ceiling: Unl
Heat Index: 72°   Visibility: 10mi
Dew Point: 22°   Wind: 8mph
Humidity: 15%   Direction: 280°W
Pressure: 30.27"   Gusts: NA
Location:  33.33°N, 116.84°W
Report Text: KRNM 252353Z 28007KT 10SM CLR 22/M06 A3027 RMK AO2 SLP240 T02221056 10261 20222 56007
Loading
Personal Weather Stations






























Interactive Weather Map New forecast layout! Learn more

10-Day Weather Forecast

Advertisements
Track Severe Weather on mobile